Time;durP1;ratioP1;P1;durP2;ratioP2;P2;SDS_P1;SDS_P2;PMS_P1;PMS_P2;Temp;Humidity;BMP_temperature;BMP_pressure;BME280_temperature;BME280_humidity;BME280_pressure;Samples;Min_cycle;Max_cycle;Signal;HPM_P1;HPM_P2
2024/03/18 00:00:51;;;;;;;;;;;;;;;7.19;67.40;94774.66;4182440;28;19928;-71
2024/03/18 00:02:52;;;;;;;;;;;;;;;7.29;67.32;94769.41;4196813;28;19920;-69
2024/03/18 00:04:53;;;;;;;;;;;;;;;7.27;66.89;94761.75;4189621;28;19925;-70
2024/03/18 00:06:54;;;;;;;;;;;;;;;7.24;67.61;94756.81;4173850;28;20346;-71
2024/03/18 00:08:54;;;;;;;;;;;;;;;7.31;67.52;94757.06;4185717;28;19952;-71
2024/03/18 00:10:55;;;;;;;;;;;;;;;7.33;66.81;94753.38;4191694;28;19920;-71
2024/03/18 00:12:57;;;;;;;;;;;;;;;7.28;66.69;94757.38;4180020;28;19921;-71
2024/03/18 00:14:58;;;;;;;;;;;;;;;7.16;67.28;94757.50;4180588;28;20379;-70
2024/03/18 00:16:58;;;;;;;;;;;;;;;7.22;67.65;94760.50;4184647;28;20133;-71
2024/03/18 00:18:59;;;;;;;;;;;;;;;7.24;67.21;94751.59;4174932;28;19928;-72
2024/03/18 00:21:00;;;;;;;;;;;;;;;7.28;66.96;94752.16;4189644;28;19967;-70
2024/03/18 00:23:00;;;;;;;;;;;;;;;7.31;67.55;94749.25;4188100;28;19931;-70
2024/03/18 00:25:01;;;;;;;;;;;;;;;7.31;66.89;94752.72;4186289;28;19928;-70
2024/03/18 00:27:02;;;;;;;;;;;;;;;7.27;67.32;94746.13;4185135;28;19920;-71
2024/03/18 00:29:03;;;;;;;;;;;;;;;7.23;67.86;94742.16;4186046;28;19963;-71
2024/03/18 00:31:04;;;;;;;;;;;;;;;7.21;67.70;94735.44;4200534;28;20297;-71
2024/03/18 00:33:05;;;;;;;;;;;;;;;7.20;68.05;94738.97;4191519;28;20038;-70
2024/03/18 00:35:06;;;;;;;;;;;;;;;7.05;68.37;94738.56;4190386;28;20402;-69
2024/03/18 00:37:07;;;;;;;;;;;;;;;6.94;69.01;94739.53;4189452;28;19921;-69
2024/03/18 00:39:07;;;;;;;;;;;;;;;6.81;69.24;94731.97;4189870;28;20023;-70
2024/03/18 00:43:27;;;;;;;;;;;;;;;7.03;69.31;94728.28;4187406;28;20293;-70
2024/03/18 00:45:28;;;;;;;;;;;;;;;7.09;68.59;94722.53;4188067;28;19927;-69
2024/03/18 00:47:29;;;;;;;;;;;;;;;7.20;68.16;94728.56;4193771;28;20247;-69
2024/03/18 00:49:29;;;;;;;;;;;;;;;7.28;67.76;94726.91;4183654;28;19990;-70
2024/03/18 00:51:31;;;;;;;;;;;;;;;7.30;67.25;94722.38;4171923;28;20544;-69
2024/03/18 00:53:32;;;;;;;;;;;;;;;7.25;67.36;94721.16;4182293;28;19953;-71
2024/03/18 00:55:33;;;;;;;;;;;;;;;7.33;67.38;94727.31;4187919;28;19952;-71
2024/03/18 00:57:34;;;;;;;;;;;;;;;7.35;66.76;94732.38;4198601;28;19950;-71
2024/03/18 00:59:35;;;;;;;;;;;;;;;7.32;67.71;94728.28;4192842;28;19928;-69
2024/03/18 01:01:37;;;;;;;;;;;;;;;7.40;66.82;94727.59;4193789;28;20329;-71
2024/03/18 01:03:38;;;;;;;;;;;;;;;7.32;67.40;94719.66;4194207;28;19928;-71
2024/03/18 01:05:39;;;;;;;;;;;;;;;7.02;67.92;94718.00;4193361;28;19967;-71
2024/03/18 01:07:40;;;;;;;;;;;;;;;7.13;68.42;94717.88;4193628;28;19924;-71
2024/03/18 01:09:41;;;;;;;;;;;;;;;7.12;67.68;94713.59;4186525;28;19924;-71
2024/03/18 01:11:42;;;;;;;;;;;;;;;6.87;68.17;94713.19;4194327;28;20005;-70
2024/03/18 01:13:47;;;;;;;;;;;;;;;6.85;68.59;94711.69;4199837;28;20343;-69
2024/03/18 01:15:50;;;;;;;;;;;;;;;6.86;69.10;94714.19;4177407;28;19931;-69
2024/03/18 01:17:51;;;;;;;;;;;;;;;6.75;69.60;94716.88;4194418;28;20217;-70
2024/03/18 01:19:52;;;;;;;;;;;;;;;6.65;70.16;94718.66;4199113;28;20025;-69
2024/03/18 01:21:53;;;;;;;;;;;;;;;6.44;71.40;94711.75;4189784;28;19974;-71
2024/03/18 01:23:53;;;;;;;;;;;;;;;6.35;71.42;94712.56;4188315;28;19924;-72
2024/03/18 01:25:54;;;;;;;;;;;;;;;6.26;71.59;94721.16;4182468;28;19929;-70
2024/03/18 01:27:55;;;;;;;;;;;;;;;6.07;72.47;94716.72;4185099;28;20012;-68
2024/03/18 01:29:56;;;;;;;;;;;;;;;6.28;72.56;94708.84;4187809;28;20384;-70
2024/03/18 01:31:56;;;;;;;;;;;;;;;6.54;71.95;94709.19;4178952;28;19944;-71
2024/03/18 01:34:04;;;;;;;;;;;;;;;6.80;70.76;94704.28;4182591;28;20413;-70
2024/03/18 01:36:05;;;;;;;;;;;;;;;6.81;69.89;94713.75;4192786;28;19946;-71
2024/03/18 01:38:06;;;;;;;;;;;;;;;6.61;69.84;94709.47;4177549;28;19925;-70
2024/03/18 01:40:07;;;;;;;;;;;;;;;6.52;70.37;94708.50;4185787;28;20004;-70
2024/03/18 01:42:08;;;;;;;;;;;;;;;6.54;70.67;94696.19;4165316;28;19921;-70
2024/03/18 01:44:09;;;;;;;;;;;;;;;6.71;70.85;94694.69;4174646;28;20031;-70
2024/03/18 01:46:13;;;;;;;;;;;;;;;6.90;70.12;94689.47;4186988;28;20168;-69
2024/03/18 01:48:14;;;;;;;;;;;;;;;7.02;69.03;94697.19;4185855;28;19931;-71
2024/03/18 01:50:15;;;;;;;;;;;;;;;6.78;69.18;94692.38;4192537;28;19935;-70
2024/03/18 01:52:19;;;;;;;;;;;;;;;6.60;70.24;94693.03;4181293;28;20256;-70
2024/03/18 01:54:19;;;;;;;;;;;;;;;6.59;69.96;94690.56;4198675;28;19920;-70
2024/03/18 01:56:20;;;;;;;;;;;;;;;6.53;70.27;94684.94;4191235;28;19954;-71
2024/03/18 01:58:21;;;;;;;;;;;;;;;6.57;70.10;94683.69;4197097;28;19989;-70
2024/03/18 02:00:37;;;;;;;;;;;;;;;6.54;70.26;94688.38;4193897;28;19921;-71
2024/03/18 02:02:38;;;;;;;;;;;;;;;6.57;70.54;94686.31;4187319;28;20046;-72
2024/03/18 02:04:38;;;;;;;;;;;;;;;6.48;70.52;94692.31;4197538;28;19924;-71
2024/03/18 02:06:41;;;;;;;;;;;;;;;6.44;70.83;94684.94;4197560;28;19997;-71
2024/03/18 02:08:42;;;;;;;;;;;;;;;6.49;70.61;94678.34;4192006;28;20263;-70
2024/03/18 02:10:43;;;;;;;;;;;;;;;6.46;70.79;94681.22;4192378;28;19920;-70
2024/03/18 02:12:44;;;;;;;;;;;;;;;6.51;70.71;94679.03;4192121;28;19955;-70
2024/03/18 02:14:46;;;;;;;;;;;;;;;6.56;70.55;94681.25;4199000;28;19928;-69
2024/03/18 02:16:47;;;;;;;;;;;;;;;6.48;70.70;94689.72;4191284;28;19982;-69
2024/03/18 02:18:47;;;;;;;;;;;;;;;6.58;70.44;94679.31;4192476;28;19924;-70
2024/03/18 02:20:49;;;;;;;;;;;;;;;6.63;70.14;94676.34;4187890;28;19943;-70
2024/03/18 02:22:50;;;;;;;;;;;;;;;6.75;69.98;94677.81;4187755;28;20066;-69
2024/03/18 02:24:51;;;;;;;;;;;;;;;6.79;70.00;94674.00;4192347;28;20134;-69
2024/03/18 02:26:51;;;;;;;;;;;;;;;6.75;69.40;94672.63;4180159;28;20007;-70
2024/03/18 02:28:52;;;;;;;;;;;;;;;6.76;70.10;94669.88;4183089;28;20440;-71
2024/03/18 02:30:53;;;;;;;;;;;;;;;6.91;69.97;94672.09;4182311;28;19949;-72
2024/03/18 02:32:53;;;;;;;;;;;;;;;7.06;69.58;94673.31;4198837;28;19919;-70
2024/03/18 02:34:54;;;;;;;;;;;;;;;7.21;69.07;94672.91;4193994;28;19931;-70
2024/03/18 02:36:55;;;;;;;;;;;;;;;7.26;68.86;94675.91;4181938;28;20380;-70
2024/03/18 02:38:56;;;;;;;;;;;;;;;7.30;68.57;94677.28;4180416;28;19927;-69
2024/03/18 02:40:57;;;;;;;;;;;;;;;7.36;67.81;94667.09;4177739;28;20000;-70
2024/03/18 02:42:57;;;;;;;;;;;;;;;7.46;67.73;94671.47;4178522;28;20448;-69
2024/03/18 02:44:58;;;;;;;;;;;;;;;7.50;67.33;94665.84;4181340;28;19920;-69
2024/03/18 02:46:59;;;;;;;;;;;;;;;7.56;67.23;94670.47;4189635;28;19985;-69
2024/03/18 02:48:59;;;;;;;;;;;;;;;7.61;67.50;94677.88;4184950;28;20340;-70
2024/03/18 02:51:04;;;;;;;;;;;;;;;7.66;66.93;94667.88;4183234;28;20597;-69
2024/03/18 02:53:06;;;;;;;;;;;;;;;7.69;66.80;94666.75;4192509;28;19921;-71
2024/03/18 02:55:07;;;;;;;;;;;;;;;7.75;67.09;94666.19;4192411;28;20414;-69
2024/03/18 02:57:09;;;;;;;;;;;;;;;7.77;66.49;94666.88;4194822;28;19920;-70
2024/03/18 02:59:09;;;;;;;;;;;;;;;7.62;66.70;94669.09;4180470;28;19977;-70
2024/03/18 03:01:10;;;;;;;;;;;;;;;7.56;67.11;94667.06;4204760;28;19920;-71
2024/03/18 03:03:11;;;;;;;;;;;;;;;7.56;66.77;94673.09;4190858;28;19927;-71
2024/03/18 03:05:12;;;;;;;;;;;;;;;7.54;67.26;94669.00;4190871;28;20370;-72
2024/03/18 03:07:13;;;;;;;;;;;;;;;7.54;67.24;94677.63;4190178;28;19921;-71
2024/03/18 03:09:15;;;;;;;;;;;;;;;7.57;67.64;94673.91;4184622;28;19970;-72
2024/03/18 03:11:16;;;;;;;;;;;;;;;7.53;67.48;94662.16;4201191;28;19973;-70
2024/03/18 03:13:17;;;;;;;;;;;;;;;7.52;67.40;94668.31;4209192;28;20382;-71
2024/03/18 03:15:17;;;;;;;;;;;;;;;7.26;67.95;94668.91;4189512;28;19932;-73
2024/03/18 03:17:18;;;;;;;;;;;;;;;7.31;68.74;94669.31;4187821;28;20338;-68
2024/03/18 03:19:19;;;;;;;;;;;;;;;7.35;68.01;94657.63;4181631;28;20011;-74
2024/03/18 03:21:19;;;;;;;;;;;;;;;7.42;68.20;94659.69;4187223;28;20415;-71
2024/03/18 03:23:21;;;;;;;;;;;;;;;7.46;68.25;94656.66;4182211;28;20391;-70
2024/03/18 03:25:22;;;;;;;;;;;;;;;7.45;67.89;94646.38;4191646;28;19981;-70
2024/03/18 03:27:22;;;;;;;;;;;;;;;7.46;67.52;94653.22;4193974;28;20290;-70
2024/03/18 03:29:23;;;;;;;;;;;;;;;7.57;67.54;94656.50;4201328;28;19978;-74
2024/03/18 03:31:24;;;;;;;;;;;;;;;7.64;67.35;94654.16;4184549;28;20014;-70
2024/03/18 03:33:24;;;;;;;;;;;;;;;7.66;67.15;94649.63;4195125;28;19984;-73
2024/03/18 03:35:25;;;;;;;;;;;;;;;7.67;66.80;94648.63;4190137;28;19927;-71
2024/03/18 03:37:26;;;;;;;;;;;;;;;7.67;67.05;94648.63;4199403;28;20400;-70
2024/03/18 03:39:27;;;;;;;;;;;;;;;7.64;67.52;94650.72;4179000;28;19985;-69
2024/03/18 03:41:27;;;;;;;;;;;;;;;7.67;67.39;94653.84;4192429;28;19935;-70
2024/03/18 03:43:28;;;;;;;;;;;;;;;7.70;67.38;94653.59;4183940;28;19920;-70
2024/03/18 03:45:29;;;;;;;;;;;;;;;7.68;67.28;94642.47;4169985;28;20431;-70
2024/03/18 03:47:29;;;;;;;;;;;;;;;7.56;66.82;94646.22;4191395;28;20015;-70
2024/03/18 03:49:30;;;;;;;;;;;;;;;7.14;68.53;94647.41;4188047;28;19924;-70
2024/03/18 03:51:31;;;;;;;;;;;;;;;7.06;68.99;94646.47;4190297;28;19920;-69
2024/03/18 03:53:32;;;;;;;;;;;;;;;7.09;69.74;94636.56;4194108;28;19938;-70
2024/03/18 03:55:36;;;;;;;;;;;;;;;7.14;69.22;94643.94;4187275;28;19920;-71
2024/03/18 03:57:37;;;;;;;;;;;;;;;7.27;69.31;94644.50;4184099;28;19920;-73
2024/03/18 03:59:38;;;;;;;;;;;;;;;7.29;68.40;94639.97;4174501;28;20414;-73
2024/03/18 04:01:38;;;;;;;;;;;;;;;7.13;68.92;94642.31;4186968;28;19924;-70
2024/03/18 04:03:39;;;;;;;;;;;;;;;7.13;69.03;94642.31;4185105;28;19925;-71
2024/03/18 04:05:40;;;;;;;;;;;;;;;7.15;68.85;94636.00;4189661;28;19920;-71
2024/03/18 04:07:41;;;;;;;;;;;;;;;7.16;69.19;94640.28;4191886;28;20398;-69
2024/03/18 04:09:41;;;;;;;;;;;;;;;7.24;68.86;94644.75;4194492;28;20007;-71
2024/03/18 04:11:42;;;;;;;;;;;;;;;7.31;69.05;94643.25;4191257;28;19990;-74
2024/03/18 04:13:43;;;;;;;;;;;;;;;7.33;68.63;94633.50;4190671;28;20008;-72
2024/03/18 04:15:44;;;;;;;;;;;;;;;7.36;68.95;94635.03;4189866;28;20007;-72
2024/03/18 04:17:45;;;;;;;;;;;;;;;7.37;68.72;94641.88;4174920;28;20410;-71
2024/03/18 04:19:46;;;;;;;;;;;;;;;7.37;68.79;94632.25;4184447;28;19928;-72
2024/03/18 04:21:46;;;;;;;;;;;;;;;7.42;68.44;94639.69;4183772;28;19964;-69
2024/03/18 04:23:47;;;;;;;;;;;;;;;7.42;68.31;94631.00;4189980;28;20375;-71
2024/03/18 04:25:48;;;;;;;;;;;;;;;7.46;67.85;94641.00;4190326;28;19920;-71
2024/03/18 04:27:48;;;;;;;;;;;;;;;7.42;67.81;94644.03;4176672;28;19920;-68
2024/03/18 04:29:49;;;;;;;;;;;;;;;7.35;68.35;94639.38;4191205;28;19924;-71
2024/03/18 04:31:50;;;;;;;;;;;;;;;7.31;68.12;94634.59;4191526;28;20027;-71
2024/03/18 04:33:50;;;;;;;;;;;;;;;7.34;68.30;94642.97;4179119;28;20418;-72
2024/03/18 04:35:51;;;;;;;;;;;;;;;7.38;68.64;94643.53;4183513;28;19925;-71
2024/03/18 04:37:54;;;;;;;;;;;;;;;7.39;68.32;94645.97;4203324;28;19920;-70
2024/03/18 04:39:55;;;;;;;;;;;;;;;7.39;68.12;94635.53;4192250;28;19924;-72
2024/03/18 04:41:56;;;;;;;;;;;;;;;7.37;67.91;94660.91;4193072;28;19920;-70
2024/03/18 04:43:57;;;;;;;;;;;;;;;7.19;67.87;94654.78;4190363;28;19928;-69
2024/03/18 04:45:57;;;;;;;;;;;;;;;7.12;68.52;94664.97;4197674;28;19925;-71
2024/03/18 04:47:58;;;;;;;;;;;;;;;7.06;68.66;94665.50;4189214;28;19928;-70
2024/03/18 04:49:58;;;;;;;;;;;;;;;6.98;68.85;94658.38;4193136;28;20377;-70
2024/03/18 04:51:59;;;;;;;;;;;;;;;6.79;69.92;94658.38;4182685;28;19928;-71
2024/03/18 04:54:00;;;;;;;;;;;;;;;6.67;70.14;94664.69;4188529;28;19944;-70
2024/03/18 04:56:01;;;;;;;;;;;;;;;6.70;70.55;94667.00;4190244;28;20378;-70
2024/03/18 04:58:02;;;;;;;;;;;;;;;6.79;70.26;94663.59;4178943;28;20039;-71
2024/03/18 05:00:11;;;;;;;;;;;;;;;6.81;70.15;94659.06;4200291;28;19943;-71
2024/03/18 05:02:12;;;;;;;;;;;;;;;6.82;70.04;94667.69;4161125;28;20340;-70
2024/03/18 05:04:13;;;;;;;;;;;;;;;6.82;69.93;94670.28;4197038;28;20019;-73
2024/03/18 05:06:14;;;;;;;;;;;;;;;6.75;69.77;94668.25;4198544;28;20374;-69
2024/03/18 05:08:14;;;;;;;;;;;;;;;6.75;69.80;94672.63;4174256;28;19924;-72
2024/03/18 05:10:21;;;;;;;;;;;;;;;6.83;69.89;94677.16;4190215;28;20232;-70
2024/03/18 05:12:22;;;;;;;;;;;;;;;6.91;69.81;94683.31;4185430;28;20533;-71
2024/03/18 05:14:23;;;;;;;;;;;;;;;7.01;69.16;94683.31;4199315;28;19945;-70
2024/03/18 05:16:27;;;;;;;;;;;;;;;7.16;69.27;94678.50;4192201;28;20347;-69
2024/03/18 05:18:28;;;;;;;;;;;;;;;7.16;68.85;94681.13;4189277;28;19928;-71
2024/03/18 05:20:28;;;;;;;;;;;;;;;7.21;68.39;94683.31;4196516;28;19926;-71
2024/03/18 05:22:32;;;;;;;;;;;;;;;7.21;68.32;94678.94;4183372;28;20544;-71
2024/03/18 05:24:33;;;;;;;;;;;;;;;7.20;67.90;94668.63;4175846;28;19921;-70
2024/03/18 05:26:34;;;;;;;;;;;;;;;7.27;68.63;94674.94;4196195;28;19993;-68
2024/03/18 05:28:35;;;;;;;;;;;;;;;7.34;68.31;94682.06;4182880;28;19925;-72
2024/03/18 05:30:35;;;;;;;;;;;;;;;7.29;67.45;94671.25;4189289;28;19924;-72
2024/03/18 05:32:36;;;;;;;;;;;;;;;7.38;67.56;94674.78;4190517;28;20015;-70
2024/03/18 05:34:37;;;;;;;;;;;;;;;7.43;67.33;94680.41;4190926;28;19946;-72
2024/03/18 05:36:37;;;;;;;;;;;;;;;7.16;68.13;94673.28;4190218;28;20020;-72
2024/03/18 05:38:38;;;;;;;;;;;;;;;7.23;67.89;94671.78;4184904;28;19928;-71
2024/03/18 05:40:39;;;;;;;;;;;;;;;7.37;68.07;94673.13;4187029;28;20271;-71
2024/03/18 05:42:40;;;;;;;;;;;;;;;7.32;67.49;94678.78;4194945;28;19931;-71
2024/03/18 05:44:40;;;;;;;;;;;;;;;7.16;67.79;94675.91;4186209;28;19920;-70
2024/03/18 05:46:41;;;;;;;;;;;;;;;7.33;68.02;94682.19;4186877;28;19958;-71
2024/03/18 05:48:41;;;;;;;;;;;;;;;7.50;67.56;94667.63;4192971;28;20325;-71
2024/03/18 05:50:42;;;;;;;;;;;;;;;7.73;66.92;94674.16;4179246;28;19921;-72
2024/03/18 05:52:43;;;;;;;;;;;;;;;7.87;66.99;94666.81;4192105;28;20438;-70
2024/03/18 05:54:46;;;;;;;;;;;;;;;8.07;66.81;94659.75;4185607;28;19943;-70
2024/03/18 05:56:47;;;;;;;;;;;;;;;8.20;65.66;94662.84;4178751;28;19972;-72
2024/03/18 05:58:48;;;;;;;;;;;;;;;8.35;65.77;94663.19;4178051;28;19948;-72
2024/03/18 06:00:48;;;;;;;;;;;;;;;8.50;65.09;94653.91;4192658;28;20014;-72
2024/03/18 06:02:49;;;;;;;;;;;;;;;8.66;64.77;94653.25;4199632;28;20066;-74
2024/03/18 06:04:50;;;;;;;;;;;;;;;8.81;64.68;94653.53;4189935;28;19924;-71
2024/03/18 06:06:51;;;;;;;;;;;;;;;8.94;63.87;94656.59;4170578;28;19929;-72
2024/03/18 06:08:51;;;;;;;;;;;;;;;8.98;62.95;94655.31;4192749;28;20362;-72
2024/03/18 06:10:52;;;;;;;;;;;;;;;8.95;62.99;94647.00;4177396;28;19920;-71
2024/03/18 06:12:53;;;;;;;;;;;;;;;8.94;63.56;94647.94;4176507;28;20394;-71
2024/03/18 06:14:53;;;;;;;;;;;;;;;8.99;63.34;94649.16;4190963;28;19924;-72
2024/03/18 06:16:54;;;;;;;;;;;;;;;8.96;63.16;94635.56;4161260;28;19924;-71
2024/03/18 06:18:55;;;;;;;;;;;;;;;9.05;63.00;94639.06;4194573;28;20065;-70
2024/03/18 06:20:56;;;;;;;;;;;;;;;9.09;63.20;94635.97;4177821;28;19971;-73
2024/03/18 06:22:57;;;;;;;;;;;;;;;9.17;62.77;94643.06;4178738;28;19940;-70
2024/03/18 06:27:17;;;;;;;;;;;;;;;9.22;62.15;94636.41;4192037;28;20387;-73
2024/03/18 06:29:18;;;;;;;;;;;;;;;9.19;62.27;94643.75;4179940;28;20003;-72
2024/03/18 06:31:18;;;;;;;;;;;;;;;9.17;62.56;94638.66;4200740;28;19920;-70
2024/03/18 06:33:19;;;;;;;;;;;;;;;8.87;63.12;94637.28;4184686;28;19971;-72
2024/03/18 06:35:20;;;;;;;;;;;;;;;8.53;63.65;94643.16;4189728;28;19970;-70
2024/03/18 06:37:22;;;;;;;;;;;;;;;8.43;63.92;94642.38;4200631;28;19920;-69
2024/03/18 06:39:22;;;;;;;;;;;;;;;8.06;64.94;94648.47;4189704;28;19932;-71
2024/03/18 06:41:23;;;;;;;;;;;;;;;7.84;65.87;94646.25;4184835;28;20001;-70
2024/03/18 06:43:24;;;;;;;;;;;;;;;8.00;65.92;94646.44;4197061;28;20402;-70
2024/03/18 06:45:25;;;;;;;;;;;;;;;8.30;64.95;94645.34;4188326;28;19964;-70
2024/03/18 06:47:26;;;;;;;;;;;;;;;8.47;63.61;94642.94;4190187;28;19932;-72
2024/03/18 06:49:26;;;;;;;;;;;;;;;8.64;64.20;94651.75;4192178;28;19932;-71
2024/03/18 06:51:27;;;;;;;;;;;;;;;8.56;64.00;94644.63;4176682;28;19921;-69
2024/03/18 06:53:28;;;;;;;;;;;;;;;8.59;63.21;94641.75;4192319;28;20027;-71
2024/03/18 06:55:29;;;;;;;;;;;;;;;8.74;63.54;94636.84;4190663;28;19989;-71
2024/03/18 06:57:30;;;;;;;;;;;;;;;8.87;63.31;94642.50;4166135;28;19921;-71
2024/03/18 06:59:31;;;;;;;;;;;;;;;9.01;62.91;94628.91;4185339;28;19921;-72
2024/03/18 07:01:32;;;;;;;;;;;;;;;8.94;62.06;94630.47;4187081;28;19928;-69
2024/03/18 07:03:32;;;;;;;;;;;;;;;9.07;62.65;94626.66;4189173;28;19920;-71
2024/03/18 07:05:33;;;;;;;;;;;;;;;9.35;62.53;94629.97;4198404;28;20405;-72
2024/03/18 07:07:34;;;;;;;;;;;;;;;9.53;61.30;94616.84;4186827;28;20324;-72
2024/03/18 07:09:35;;;;;;;;;;;;;;;9.51;61.71;94622.25;4185913;28;19938;-72
2024/03/18 07:11:35;;;;;;;;;;;;;;;9.64;61.06;94620.03;4191528;28;20469;-71
2024/03/18 07:13:37;;;;;;;;;;;;;;;9.63;61.10;94623.59;4180855;28;19986;-72
2024/03/18 07:15:38;;;;;;;;;;;;;;;9.76;61.24;94617.13;4199615;28;19928;-70
2024/03/18 07:17:40;;;;;;;;;;;;;;;9.90;61.23;94624.41;4183310;28;20348;-72
2024/03/18 07:19:41;;;;;;;;;;;;;;;10.05;60.60;94612.34;4171481;28;20143;-72
2024/03/18 07:21:42;;;;;;;;;;;;;;;9.81;60.92;94620.94;4193726;28;20414;-70
2024/03/18 07:23:42;;;;;;;;;;;;;;;9.97;60.89;94616.75;4183875;28;19928;-71
2024/03/18 07:25:43;;;;;;;;;;;;;;;10.25;60.25;94606.84;4188862;28;20513;-70
2024/03/18 07:27:45;;;;;;;;;;;;;;;10.51;59.78;94603.34;4190666;28;19928;-70
2024/03/18 07:29:45;;;;;;;;;;;;;;;10.61;58.81;94599.59;4191747;28;19950;-72
2024/03/18 07:31:46;;;;;;;;;;;;;;;10.66;58.04;94597.31;4195117;28;20426;-70
2024/03/18 07:33:47;;;;;;;;;;;;;;;10.52;58.10;94597.13;4194346;28;19920;-72
2024/03/18 07:35:51;;;;;;;;;;;;;;;10.54;58.09;94595.16;4184754;28;19943;-71
2024/03/18 07:37:51;;;;;;;;;;;;;;;10.58;58.23;94589.47;4187831;28;19935;-72
2024/03/18 07:39:52;;;;;;;;;;;;;;;10.70;58.08;94589.16;4189117;28;20375;-70
2024/03/18 07:41:55;;;;;;;;;;;;;;;10.89;57.67;94580.97;4189876;28;19921;-72
2024/03/18 07:43:56;;;;;;;;;;;;;;;10.93;57.55;94590.13;4189201;28;19994;-71
2024/03/18 07:45:57;;;;;;;;;;;;;;;10.98;57.86;94577.34;4190699;28;19972;-73
2024/03/18 07:48:04;;;;;;;;;;;;;;;11.27;57.35;94576.00;4195708;28;20335;-73
2024/03/18 07:50:06;;;;;;;;;;;;;;;11.40;56.66;94575.50;4186608;28;19975;-73
2024/03/18 07:52:07;;;;;;;;;;;;;;;11.57;56.09;94571.03;4188378;28;19928;-71
2024/03/18 07:54:07;;;;;;;;;;;;;;;11.71;55.37;94567.72;4179477;28;19924;-71
2024/03/18 07:56:10;;;;;;;;;;;;;;;11.62;54.99;94566.13;4185912;28;19940;-73
2024/03/18 07:58:10;;;;;;;;;;;;;;;11.64;55.54;94566.78;4184936;28;19928;-70
2024/03/18 08:00:11;;;;;;;;;;;;;;;11.51;55.83;94559.44;4191397;28;20327;-73
2024/03/18 08:02:12;;;;;;;;;;;;;;;11.57;55.35;94555.28;4176022;28;20336;-72
2024/03/18 08:04:13;;;;;;;;;;;;;;;11.76;55.19;94559.34;4186969;28;19977;-69
2024/03/18 08:06:13;;;;;;;;;;;;;;;11.31;55.68;94561.56;4190001;28;20324;-73
2024/03/18 08:08:14;;;;;;;;;;;;;;;11.45;55.94;94552.22;4190989;28;20020;-72
2024/03/18 08:10:15;;;;;;;;;;;;;;;11.34;55.34;94553.41;4181625;28;19932;-71
2024/03/18 08:12:16;;;;;;;;;;;;;;;11.51;55.12;94545.47;4201332;28;19997;-73
2024/03/18 08:14:18;;;;;;;;;;;;;;;11.71;55.19;94546.72;4191970;28;19928;-72
2024/03/18 08:16:19;;;;;;;;;;;;;;;11.46;55.32;94549.44;4167683;28;19925;-73
2024/03/18 08:18:20;;;;;;;;;;;;;;;11.24;55.65;94547.50;4175517;28;19931;-73
2024/03/18 08:20:20;;;;;;;;;;;;;;;11.47;55.65;94547.63;4183107;28;19927;-74
2024/03/18 08:22:21;;;;;;;;;;;;;;;11.53;54.83;94543.50;4178862;28;19967;-71
2024/03/18 08:24:21;;;;;;;;;;;;;;;11.46;55.20;94548.59;4185537;28;20236;-69
2024/03/18 08:26:22;;;;;;;;;;;;;;;11.41;55.09;94543.84;4188552;28;19938;-70
2024/03/18 08:28:23;;;;;;;;;;;;;;;11.42;54.82;94550.75;4206758;28;19920;-71
2024/03/18 08:30:23;;;;;;;;;;;;;;;11.44;54.42;94546.16;4183696;28;19991;-72
2024/03/18 08:32:24;;;;;;;;;;;;;;;11.37;55.04;94542.56;4198022;28;19924;-71
2024/03/18 08:34:25;;;;;;;;;;;;;;;11.27;55.59;94541.91;4174400;28;19932;-74
2024/03/18 08:36:26;;;;;;;;;;;;;;;11.19;56.11;94548.00;4177662;28;20302;-70
2024/03/18 08:38:29;;;;;;;;;;;;;;;11.29;55.95;94547.81;4200320;28;19967;-70
2024/03/18 08:40:29;;;;;;;;;;;;;;;11.56;55.57;94537.94;4184708;28;19920;-72
2024/03/18 08:42:30;;;;;;;;;;;;;;;11.74;55.65;94542.94;4178066;28;19970;-70
2024/03/18 08:44:31;;;;;;;;;;;;;;;12.02;54.10;94538.09;4193272;28;19990;-70
2024/03/18 08:46:32;;;;;;;;;;;;;;;12.37;53.51;94535.91;4186418;28;19920;-72
2024/03/18 08:48:34;;;;;;;;;;;;;;;12.64;52.62;94529.34;4190335;28;20000;-71
2024/03/18 08:50:35;;;;;;;;;;;;;;;12.53;50.99;94525.31;4189681;28;19986;-71
2024/03/18 08:52:39;;;;;;;;;;;;;;;12.59;52.26;94522.00;4190865;28;20407;-70
2024/03/18 08:54:40;;;;;;;;;;;;;;;12.39;52.71;94523.44;4184106;28;20005;-72
2024/03/18 08:56:41;;;;;;;;;;;;;;;12.30;53.07;94530.53;4186689;28;20353;-71
2024/03/18 08:58:43;;;;;;;;;;;;;;;12.44;53.10;94521.94;4186234;28;20561;-72
2024/03/18 09:00:45;;;;;;;;;;;;;;;12.50;52.77;94531.75;4184706;28;19943;-72
2024/03/18 09:02:45;;;;;;;;;;;;;;;12.40;53.27;94515.38;4193227;28;19985;-72
2024/03/18 09:04:46;;;;;;;;;;;;;;;12.67;52.65;94527.19;4190894;28;19925;-73
2024/03/18 09:06:47;;;;;;;;;;;;;;;12.95;52.10;94523.16;4167391;28;19920;-74
2024/03/18 09:08:48;;;;;;;;;;;;;;;13.23;50.77;94518.16;4189855;28;19920;-72
2024/03/18 09:10:49;;;;;;;;;;;;;;;13.50;49.53;94503.59;4187241;28;19972;-72
2024/03/18 09:12:49;;;;;;;;;;;;;;;13.66;49.11;94507.88;4186775;28;20395;-70
2024/03/18 09:14:50;;;;;;;;;;;;;;;13.68;49.53;94504.06;4192745;28;20402;-72
2024/03/18 09:16:51;;;;;;;;;;;;;;;13.53;45.63;94511.16;4190079;28;20058;-73
2024/03/18 09:18:52;;;;;;;;;;;;;;;13.63;44.92;94510.84;4180191;28;19976;-71
2024/03/18 09:20:55;;;;;;;;;;;;;;;13.64;42.73;94509.88;4185209;28;20007;-71
2024/03/18 09:22:55;;;;;;;;;;;;;;;13.44;42.17;94505.16;4189198;28;20286;-72
2024/03/18 09:24:56;;;;;;;;;;;;;;;13.58;42.56;94502.69;4186626;28;19978;-74
2024/03/18 09:27:01;;;;;;;;;;;;;;;13.60;42.24;94509.41;4188244;28;20078;-73
2024/03/18 09:29:02;;;;;;;;;;;;;;;13.70;41.61;94495.94;4192189;28;19971;-71
2024/03/18 09:31:03;;;;;;;;;;;;;;;13.88;40.72;94504.28;4180914;28;19924;-71
2024/03/18 09:33:04;;;;;;;;;;;;;;;13.86;41.47;94479.97;4192133;28;20367;-73
2024/03/18 09:35:05;;;;;;;;;;;;;;;14.06;41.38;94480.19;4185571;28;19954;-72
2024/03/18 09:37:06;;;;;;;;;;;;;;;14.17;39.94;94472.81;4181403;28;19921;-75
2024/03/18 09:39:07;;;;;;;;;;;;;;;14.33;40.32;94470.75;4190510;28;20248;-71
2024/03/18 09:41:08;;;;;;;;;;;;;;;14.46;39.76;94472.69;4191269;28;20057;-71
2024/03/18 09:43:09;;;;;;;;;;;;;;;14.24;39.76;94469.25;4176457;28;19925;-72
2024/03/18 09:45:16;;;;;;;;;;;;;;;14.01;40.20;94469.41;4165027;28;20326;-73
2024/03/18 09:47:23;;;;;;;;;;;;;;;13.84;40.36;94465.34;4192319;28;19932;-71
2024/03/18 09:49:25;;;;;;;;;;;;;;;13.62;40.85;94467.94;4193979;28;19928;-73
2024/03/18 09:51:26;;;;;;;;;;;;;;;13.17;41.53;94463.66;4185772;28;20408;-70
2024/03/18 09:53:30;;;;;;;;;;;;;;;13.23;41.46;94465.56;4190188;28;20343;-71
2024/03/18 09:55:30;;;;;;;;;;;;;;;13.33;41.42;94463.50;4189562;28;19924;-72
2024/03/18 09:57:31;;;;;;;;;;;;;;;13.71;40.52;94451.03;4191861;28;19969;-72
2024/03/18 09:59:32;;;;;;;;;;;;;;;14.17;39.56;94443.81;4191966;28;20229;-72
2024/03/18 10:01:35;;;;;;;;;;;;;;;14.47;39.41;94440.06;4176140;28;20047;-73
2024/03/18 10:03:38;;;;;;;;;;;;;;;14.37;39.43;94438.75;4186640;28;19931;-72
2024/03/18 10:05:39;;;;;;;;;;;;;;;14.46;39.13;94435.00;4186300;28;19928;-73
2024/03/18 10:07:41;;;;;;;;;;;;;;;14.77;38.63;94433.84;4197512;28;20449;-73
2024/03/18 10:09:46;;;;;;;;;;;;;;;15.08;38.63;94433.47;4200467;28;19927;-74
2024/03/18 10:11:47;;;;;;;;;;;;;;;15.10;38.27;94442.81;4191989;28;20313;-71
2024/03/18 10:13:48;;;;;;;;;;;;;;;15.34;38.01;94438.09;4188323;28;20020;-72
2024/03/18 10:15:49;;;;;;;;;;;;;;;15.65;37.77;94421.78;4177180;28;19989;-70
2024/03/18 10:17:52;;;;;;;;;;;;;;;15.64;37.33;94419.34;4179102;28;20314;-72
2024/03/18 10:19:53;;;;;;;;;;;;;;;15.90;37.18;94418.66;4181346;28;20292;-72
2024/03/18 10:21:53;;;;;;;;;;;;;;;16.03;37.07;94423.19;4199178;28;19946;-71
2024/03/18 10:23:56;;;;;;;;;;;;;;;16.04;36.95;94411.59;4198083;28;19920;-72
2024/03/18 10:26:00;;;;;;;;;;;;;;;15.29;38.32;94420.22;4185095;28;19924;-73
2024/03/18 10:28:03;;;;;;;;;;;;;;;14.82;39.33;94427.00;4181961;28;19939;-72
2024/03/18 10:30:04;;;;;;;;;;;;;;;14.58;39.85;94414.22;4192012;28;19920;-74
2024/03/18 10:32:21;;;;;;;;;;;;;;;14.18;40.29;94408.59;4178175;28;19920;-69
2024/03/18 10:34:22;;;;;;;;;;;;;;;13.96;40.88;94407.75;4164808;28;20268;-72
2024/03/18 10:36:26;;;;;;;;;;;;;;;14.14;40.28;94394.97;4177898;28;19924;-72
2024/03/18 10:38:26;;;;;;;;;;;;;;;14.19;40.51;94394.41;4171192;28;20403;-71
2024/03/18 10:40:36;;;;;;;;;;;;;;;14.06;40.75;94392.47;4167878;28;19935;-72